Monatiquot River @ East Braintree, Ma

Monatiquot River at East Braintree
 Total Drainage Area: 29 sq. miles 
 Drainage Area Controlled by Corps Dams: 0 sq. miles (0%) 
 Warning Flow/Stage: 350 cfs / 3.5 feet 
 Flood Flow/Stage: 800 cfs / 4.5 feet 
Date Time
(Eastern)
Stage
(ft)
Flow
(cfs)
CSM
(cfs / sq. mi.)
Jan-31 03:00 pm 2.63 96 3.4
Jan-31 02:00 pm 2.64 97 3.4
Jan-31 01:00 pm 2.65 99 3.4
Jan-31 12:00 pm 2.66 100 3.5
Jan-31 11:00 am 2.66 100 3.5
Jan-31 10:00 am 2.66 100 3.5
Jan-31 09:00 am 2.67 102 3.5
Jan-31 08:00 am 2.68 103 3.6
Jan-31 07:00 am 2.70 106 3.7
Jan-31 06:00 am 2.69 104 3.6
Jan-31 05:00 am 2.69 104 3.6
Jan-31 04:00 am 2.69 104 3.6
Jan-31 03:00 am 2.70 106 3.7
Jan-31 02:00 am 2.70 106 3.7
Jan-31 01:00 am 2.74 112 3.9
Jan-31 12:00 am 2.70 106 3.7
Jan-30 11:00 pm 2.75 113 4.0
Jan-30 10:00 pm 2.75 113 4.0
Jan-30 09:00 pm 2.77 116 4.1
Jan-30 08:00 pm 2.77 116 4.1
Jan-30 07:00 pm 2.77 116 4.1
Jan-30 06:00 pm 2.78 118 4.1
Jan-30 05:00 pm 2.80 121 4.2
Jan-30 04:00 pm 2.81 123 4.3
Jan-30 03:00 pm 2.81 123 4.3
Report Generated January 31, 2023 04:01 pm